.
WxDataArchive / Data Records for 2012-05-17
2012-05-16 May 2012 2012-05-18

Data Records for Thursday, 17 May 2012

Time	Temp	Chill	HIndex	Humid	Dewpt	 Wind 	HiWind	WindDir	Rain 	Barom 
-----	----	-----	------	-----	-----	------	------	-------	-----	----- 
00:00	51.3	51.3	51.3	61	38.3	0	1	90	0.00	30.096 
00:05	51.4	51.4	51.4	61	38.4	0	1	90	0.00	30.096 
00:10	51.6	51.6	51.6	60	38.2	0	1	90	0.00	30.096 
00:15	51.7	51.7	51.7	60	38.3	0	0	---	0.00	30.098 
00:20	51.9	51.9	51.9	60	38.5	0	0	---	0.00	30.098 
00:25	51.7	51.7	51.7	60	38.3	0	0	---	0.00	30.098 
00:30	51.6	51.6	51.6	60	38.2	0	0	---	0.00	30.097 
00:35	51.3	51.3	51.3	61	38.3	0	0	---	0.00	30.097 
00:40	51.1	51.1	51.1	62	38.5	0	0	---	0.00	30.097 
00:45	50.8	50.8	50.8	62	38.3	0	0	---	0.00	30.097 
00:50	50.7	50.7	50.7	63	38.6	0	0	---	0.00	30.097 
00:55	50.5	50.5	50.5	64	38.8	0	0	---	0.00	30.097 
01:00	50.4	50.4	50.4	65	39.1	0	0	---	0.00	30.100 
01:05	50.2	50.2	50.2	66	39.3	0	0	---	0.00	30.100 
01:10	50.2	50.2	50.2	66	39.3	0	0	---	0.00	30.100 
01:15	50.1	50.1	50.1	66	39.2	0	0	---	0.00	30.102 
01:20	49.9	49.9	49.9	67	39.4	0	0	---	0.00	30.102 
01:25	49.8	49.8	49.8	68	39.7	0	0	---	0.00	30.102 
01:30	49.6	49.6	49.6	68	39.5	0	0	---	0.00	30.102 
01:35	49.5	49.5	49.5	68	39.4	0	0	---	0.00	30.102 
01:40	49.5	49.5	49.5	69	39.8	0	0	---	0.00	30.102 
01:45	49.4	49.4	49.4	69	39.7	0	0	---	0.00	30.103 
01:50	49.2	49.2	49.2	69	39.5	0	0	---	0.00	30.103 
01:55	49.1	49.1	49.1	69	39.4	0	0	---	0.00	30.103 
02:00	48.9	48.9	48.9	70	39.6	0	0	---	0.00	30.104 
02:05	48.8	48.8	48.8	71	39.8	0	0	---	0.00	30.104 
02:10	48.6	48.6	48.6	71	39.6	0	0	---	0.00	30.104 
02:15	48.5	48.5	48.5	72	39.9	0	0	---	0.00	30.104 
02:20	48.3	48.3	48.3	72	39.7	0	0	---	0.00	30.104 
02:25	48.2	48.2	48.2	72	39.6	0	0	---	0.00	30.104 
02:30	48.0	48.0	48.0	73	39.8	0	0	---	0.00	30.105 
02:35	47.7	47.7	47.7	73	39.5	0	0	---	0.00	30.105 
02:40	47.4	47.4	47.4	74	39.5	0	0	---	0.00	30.105 
02:45	47.1	47.1	47.1	75	39.6	0	0	---	0.00	30.103 
02:50	47.0	47.0	47.0	76	39.8	0	0	---	0.00	30.103 
02:55	46.7	46.7	46.7	76	39.5	0	0	---	0.00	30.103 
03:00	46.4	46.4	46.4	77	39.6	0	0	---	0.00	30.104 
03:05	46.2	46.2	46.2	77	39.4	0	0	---	0.00	30.104 
03:10	46.0	46.0	46.0	78	39.5	0	0	---	0.00	30.104 
03:15	45.8	45.8	45.8	78	39.3	0	0	---	0.00	30.108 
03:20	45.7	45.7	45.7	79	39.6	0	0	---	0.00	30.108 
03:25	45.4	45.4	45.4	80	39.6	0	0	---	0.00	30.108 
03:30	45.2	45.2	45.2	81	39.7	0	0	---	0.00	30.110 
03:35	45.1	45.1	45.1	81	39.6	0	0	---	0.00	30.110 
03:40	44.9	44.9	44.9	81	39.4	0	0	---	0.00	30.110 
03:45	44.8	44.8	44.8	82	39.6	0	0	---	0.00	30.111 
03:50	44.5	44.5	44.5	82	39.4	0	0	---	0.00	30.111 
03:55	44.3	44.3	44.3	83	39.5	0	0	---	0.00	30.111 
04:00	44.2	44.2	44.2	83	39.4	0	0	---	0.00	30.117 
04:05	44.1	44.1	44.1	84	39.6	0	0	---	0.00	30.117 
04:10	43.9	43.9	43.9	84	39.4	0	0	---	0.00	30.117 
04:15	43.9	43.9	43.9	84	39.4	0	0	---	0.00	30.119 
04:20	43.8	43.8	43.8	84	39.3	0	0	---	0.00	30.119 
04:25	43.8	43.8	43.8	84	39.3	0	0	---	0.00	30.119 
04:30	43.6	43.6	43.6	84	39.1	0	0	---	0.00	30.122 
04:35	43.6	43.6	43.6	85	39.4	0	0	---	0.00	30.122 
04:40	43.6	43.6	43.6	85	39.4	0	0	---	0.00	30.122 
04:45	43.5	43.5	43.5	85	39.3	0	0	---	0.00	30.122 
04:50	43.6	43.6	43.6	85	39.4	0	0	---	0.00	30.122 
04:55	43.5	43.5	43.5	85	39.3	0	0	---	0.00	30.122 
05:00	43.6	43.6	43.6	85	39.4	0	0	---	0.00	30.131 
05:05	43.6	43.6	43.6	84	39.1	0	0	---	0.00	30.131 
05:10	43.6	43.6	43.6	84	39.1	0	0	---	0.00	30.131 
05:15	43.5	43.5	43.5	84	39.0	0	0	---	0.00	30.129 
05:20	43.5	43.5	43.5	84	39.0	0	0	---	0.00	30.129 
05:25	43.5	43.5	43.5	84	39.0	0	0	---	0.00	30.129 
05:30	43.5	43.5	43.5	84	39.0	0	0	---	0.00	30.134 
05:35	43.3	43.3	43.3	84	38.8	0	0	---	0.00	30.134 
05:40	43.3	43.3	43.3	84	38.8	0	0	---	0.00	30.134 
05:45	43.3	43.3	43.3	84	38.8	0	0	---	0.00	30.139 
05:50	43.3	43.3	43.3	84	38.8	0	0	---	0.00	30.139 
05:55	43.2	43.2	43.2	84	38.7	0	0	---	0.00	30.139 
06:00	43.1	43.1	43.1	84	38.6	0	0	---	0.00	30.142 
06:05	43.1	43.1	43.1	84	38.6	0	0	---	0.00	30.142 
06:10	42.9	42.9	42.9	84	38.4	0	0	---	0.00	30.142 
06:15	42.9	42.9	42.9	84	38.4	0	0	---	0.00	30.145 
06:20	42.8	42.8	42.8	85	38.6	0	0	---	0.00	30.145 
06:25	42.8	42.8	42.8	85	38.6	0	0	---	0.00	30.145 
06:30	42.6	42.6	42.6	85	38.4	0	0	---	0.00	30.152 
06:35	42.8	42.8	42.8	85	38.6	0	0	---	0.00	30.152 
06:40	42.8	42.8	42.8	85	38.6	0	0	---	0.00	30.152 
06:45	42.8	42.8	42.8	85	38.6	0	1	112	0.00	30.157 
06:50	42.9	42.9	42.9	85	38.7	0	0	---	0.00	30.157 
06:55	43.1	43.1	43.1	86	39.2	0	1	112	0.00	30.157 
07:00	43.5	43.5	43.5	85	39.3	0	1	112	0.00	30.164 
07:05	43.9	43.9	43.9	84	39.4	0	2	112	0.00	30.164 
07:10	44.5	44.5	44.5	83	39.7	0	1	112	0.00	30.164 
07:15	45.1	45.1	45.1	82	39.9	0	3	112	0.00	30.171 
07:20	45.7	45.7	45.7	79	39.6	0	2	112	0.00	30.171 
07:25	46.4	46.4	46.4	78	39.9	0	2	112	0.00	30.171 
07:30	47.0	47.0	47.0	77	40.2	0	1	112	0.00	30.174 
07:35	47.7	47.7	47.7	75	40.2	0	3	112	0.00	30.174 
07:40	48.5	48.5	48.5	73	40.2	1	3	112	0.00	30.174 
07:45	49.2	49.2	49.2	72	40.6	1	3	112	0.00	30.181 
07:50	49.8	49.8	49.8	71	40.8	0	1	112	0.00	30.181 
07:55	50.4	50.4	50.4	69	40.6	2	5	90	0.00	30.181 
08:00	50.7	50.7	50.7	69	40.9	1	4	112	0.00	30.183 
08:05	51.1	51.1	51.1	68	40.9	1	3	112	0.00	30.183 
08:10	51.4	51.4	51.4	67	40.8	2	5	112	0.00	30.183 
08:15	51.9	51.9	51.9	67	41.3	1	4	68	0.00	30.187 
08:20	52.6	52.6	52.6	67	42.0	0	2	68	0.00	30.187 
08:25	53.5	53.5	53.5	64	41.6	1	2	68	0.00	30.187 
08:30	54.1	54.1	54.1	64	42.2	1	3	68	0.00	30.187 
08:35	54.5	54.5	54.5	63	42.2	1	2	68	0.00	30.187 
08:40	55.1	55.1	55.1	61	41.9	0	2	68	0.00	30.187 
08:45	55.6	55.6	55.6	58	41.1	1	3	68	0.00	30.193 
08:50	56.0	56.0	56.0	57	41.0	1	3	68	0.00	30.193 
08:55	56.6	56.6	56.6	57	41.5	1	3	68	0.00	30.193 
09:00	56.9	56.9	56.9	54	40.4	1	3	68	0.00	30.193 
09:05	57.0	57.0	57.0	53	40.0	1	4	90	0.00	30.193 
09:10	57.0	57.0	57.0	54	40.5	1	3	90	0.00	30.193 
09:15	57.3	57.3	57.3	52	39.8	1	3	90	0.00	30.196 
09:20	57.8	57.8	57.8	51	39.8	1	3	90	0.00	30.196 
09:25	58.6	58.6	58.6	49	39.5	0	4	112	0.00	30.196 
09:30	59.0	59.0	59.0	48	39.3	1	3	112	0.00	30.191 
09:35	59.0	59.0	59.0	49	39.9	1	5	90	0.00	30.191 
09:40	59.3	59.3	59.3	46	38.5	1	4	90	0.00	30.191 
09:45	59.8	59.8	59.8	47	39.5	0	2	112	0.00	30.189 
09:50	60.4	60.4	60.4	45	39.0	1	4	135	0.00	30.189 
09:55	60.2	60.2	60.2	46	39.3	1	4	90	0.00	30.189 
10:00	60.4	60.4	60.4	46	39.5	1	3	90	0.00	30.188 
10:05	60.7	60.7	60.7	45	39.2	1	3	90	0.00	30.188 
10:10	61.0	61.0	61.0	45	39.5	1	4	90	0.00	30.188 
10:15	61.5	61.5	61.5	41	37.6	1	5	90	0.00	30.183 
10:20	61.2	61.2	61.2	42	37.9	3	6	45	0.00	30.183 
10:25	60.7	60.7	60.7	43	38.1	2	5	112	0.00	30.183 
10:30	61.0	61.0	61.0	42	37.7	2	6	90	0.00	30.182 
10:35	61.5	61.5	61.5	43	38.8	2	5	90	0.00	30.182 
10:40	62.1	62.1	62.1	41	38.1	1	5	135	0.00	30.182 
10:45	62.3	62.3	62.3	41	38.3	2	5	90	0.00	30.174 
10:50	62.4	62.4	62.4	41	38.4	1	5	90	0.00	30.174 
10:55	62.7	62.7	62.7	38	36.7	1	4	90	0.00	30.174 
11:00	63.4	63.4	63.4	39	38.0	1	3	90	0.00	30.174 
11:05	63.9	63.9	63.9	39	38.5	1	4	90	0.00	30.174 
11:10	63.9	63.9	63.9	38	37.8	2	7	112	0.00	30.174 
11:15	64.0	64.0	64.0	40	39.2	0	2	90	0.00	30.174 
11:20	64.2	64.2	64.2	38	38.1	2	9	90	0.00	30.174 
11:25	64.3	64.3	64.3	37	37.5	1	6	68	0.00	30.174 
11:30	64.8	64.8	64.8	38	38.6	2	7	90	0.00	30.169 
11:35	64.8	64.8	64.8	37	37.9	1	5	45	0.00	30.169 
11:40	65.0	65.0	65.0	35	36.7	3	6	112	0.00	30.169 
11:45	65.0	65.0	65.0	38	38.8	2	5	68	0.00	30.173 
11:50	65.0	65.0	65.0	34	35.9	2	5	90	0.00	30.173 
11:55	65.3	65.3	65.3	36	37.7	1	4	112	0.00	30.173 
12:00	65.5	65.5	65.5	34	36.4	2	5	68	0.00	30.176 
12:05	65.6	65.6	65.6	34	36.5	2	6	112	0.00	30.176 
12:10	66.0	66.0	66.0	34	36.8	3	10	112	0.00	30.176 
12:15	66.0	66.0	66.0	29	32.8	3	7	90	0.00	30.176 
12:20	65.8	65.8	65.8	31	34.3	3	6	90	0.00	30.176 
12:25	66.1	66.1	66.1	33	36.2	1	5	90	0.00	30.176 
12:30	66.3	66.3	66.3	27	31.3	2	7	112	0.00	30.175 
12:35	66.8	66.8	66.8	30	34.4	2	6	112	0.00	30.175 
12:40	67.1	67.1	67.1	27	32.0	2	7	68	0.00	30.175 
12:45	66.9	66.9	66.9	28	32.7	3	5	112	0.00	30.171 
12:50	66.9	66.9	66.9	30	34.5	3	7	90	0.00	30.171 
12:55	67.1	67.1	67.1	28	32.9	3	7	90	0.00	30.171 
13:00	67.1	67.1	67.1	27	32.0	2	7	112	0.00	30.168 
13:05	67.1	67.1	67.1	27	32.0	1	5	90	0.00	30.168 
13:10	67.6	67.6	67.6	28	33.3	2	6	90	0.00	30.168 
13:15	67.9	67.9	67.9	26	31.7	4	9	112	0.00	30.167 
13:20	67.8	67.8	67.8	28	33.5	2	5	112	0.00	30.167 
13:25	68.3	68.3	68.3	29	34.8	1	6	90	0.00	30.167 
13:30	68.6	68.6	68.6	26	32.3	3	10	90	0.00	30.162 
13:35	68.4	68.4	68.4	28	34.0	2	6	112	0.00	30.162 
13:40	68.4	68.4	68.4	28	34.0	3	9	112	0.00	30.162 
13:45	68.4	68.4	68.4	27	33.1	3	6	90	0.00	30.157 
13:50	68.1	68.1	68.1	28	33.8	3	7	90	0.00	30.157 
13:55	68.3	68.3	68.3	27	33.0	2	8	112	0.00	30.157 
14:00	68.6	68.6	68.6	28	34.2	3	9	112	0.00	30.151 
14:05	68.8	68.8	68.8	28	34.4	3	6	90	0.00	30.151 
14:10	68.4	68.4	68.4	27	33.1	3	11	90	0.00	30.151 
14:15	68.8	68.8	68.8	27	33.5	1	3	68	0.00	30.153 
14:20	69.1	69.1	69.1	26	32.8	3	9	112	0.00	30.153 
14:25	69.4	69.4	69.4	26	33.0	2	10	112	0.00	30.153 
14:30	69.4	69.4	69.4	24	31.0	3	6	90	0.00	30.152 
14:35	69.6	69.6	69.6	25	32.2	2	6	112	0.00	30.152 
14:40	69.4	69.4	69.4	26	33.0	3	6	112	0.00	30.152 
14:45	69.8	69.8	69.8	26	33.4	2	6	112	0.00	30.150 
14:50	69.9	69.9	69.9	26	33.4	2	6	90	0.00	30.150 
14:55	70.4	70.4	70.4	26	33.9	1	3	90	0.00	30.150 
15:00	70.6	70.6	70.6	24	32.0	2	7	90	0.00	30.144 
15:05	70.9	70.9	70.9	23	31.2	2	5	90	0.00	30.144 
15:10	70.9	70.9	70.9	25	33.3	1	10	90	0.00	30.144 
15:15	70.8	70.8	70.8	23	31.2	2	11	112	0.00	30.142 
15:20	70.9	70.9	70.9	24	32.3	1	4	112	0.00	30.142 
15:25	70.8	70.8	70.8	24	32.2	2	6	90	0.00	30.142 
15:30	70.9	70.9	70.9	25	33.3	2	7	112	0.00	30.136 
15:35	71.1	71.1	71.1	25	33.5	1	5	112	0.00	30.136 
15:40	71.1	71.1	71.1	24	32.5	2	5	90	0.00	30.136 
15:45	70.9	70.9	70.9	23	31.2	2	6	112	0.00	30.136 
15:50	70.9	70.9	70.9	24	32.3	2	5	112	0.00	30.136 
15:55	71.1	71.1	71.1	24	32.5	2	7	90	0.00	30.136 
16:00	71.1	71.1	71.1	25	33.5	2	6	90	0.00	30.126 
16:05	71.3	71.3	71.3	24	32.6	2	7	90	0.00	30.126 
16:10	71.5	71.5	71.5	24	32.8	1	4	68	0.00	30.126 
16:15	71.6	71.6	71.6	25	33.9	1	5	22	0.00	30.120 
16:20	71.6	71.6	71.6	26	34.9	1	4	112	0.00	30.120 
16:25	71.8	71.8	71.8	26	35.1	1	3	112	0.00	30.120 
16:30	71.5	71.5	71.5	25	33.8	2	5	112	0.00	30.118 
16:35	71.3	71.3	71.3	24	32.6	3	9	112	0.00	30.118 
16:40	71.3	71.3	71.3	26	34.6	1	5	90	0.00	30.118 
16:45	71.6	71.6	71.6	24	32.9	1	5	90	0.00	30.106 
16:50	71.8	71.8	71.8	28	36.9	2	6	90	0.00	30.106 
16:55	71.6	71.6	71.6	25	33.9	2	6	112	0.00	30.106 
17:00	71.8	71.8	71.8	24	33.1	2	6	90	0.00	30.107 
17:05	71.8	71.8	71.8	25	34.1	1	4	90	0.00	30.107 
17:10	71.8	71.8	71.8	25	34.1	2	6	112	0.00	30.107 
17:15	71.5	71.5	71.5	24	32.8	2	7	90	0.00	30.105 
17:20	71.6	71.6	71.6	26	34.9	2	4	90	0.00	30.105 
17:25	71.6	71.6	71.6	26	34.9	2	6	68	0.00	30.105 
17:30	71.5	71.5	71.5	24	32.8	3	9	90	0.00	30.105 
17:35	71.1	71.1	71.1	25	33.5	2	5	90	0.00	30.105 
17:40	71.1	71.1	71.1	26	34.5	1	3	90	0.00	30.105 
17:45	71.1	71.1	71.1	26	34.5	2	6	90	0.00	30.103 
17:50	71.1	71.1	71.1	25	33.5	0	3	90	0.00	30.103 
17:55	70.9	70.9	70.9	25	33.3	2	6	112	0.00	30.103 
18:00	70.9	70.9	70.9	26	34.3	1	6	90	0.00	30.104 
18:05	70.8	70.8	70.8	26	34.2	2	6	90	0.00	30.104 
18:10	70.6	70.6	70.6	26	34.0	2	5	112	0.00	30.104 
18:15	70.6	70.6	70.6	26	34.0	1	4	90	0.00	30.103 
18:20	70.6	70.6	70.6	25	33.1	2	6	90	0.00	30.103 
18:25	70.4	70.4	70.4	27	34.8	2	6	90	0.00	30.103 
18:30	70.3	70.3	70.3	28	35.6	1	3	90	0.00	30.100 
18:35	70.3	70.3	70.3	26	33.8	1	4	90	0.00	30.100 
18:40	70.3	70.3	70.3	26	33.8	2	6	112	0.00	30.100 
18:45	70.1	70.1	70.1	26	33.6	3	7	90	0.00	30.099 
18:50	69.9	69.9	69.9	26	33.4	2	5	90	0.00	30.099 
18:55	69.6	69.6	69.6	27	34.1	2	6	90	0.00	30.099 
19:00	69.6	69.6	69.6	27	34.1	2	5	90	0.00	30.099 
19:05	69.4	69.4	69.4	26	33.0	2	5	90	0.00	30.099 
19:10	69.3	69.3	69.3	26	32.9	2	5	90	0.00	30.099 
19:15	69.1	69.1	69.1	27	33.7	2	6	90	0.00	30.090 
19:20	68.9	68.9	68.9	28	34.4	1	4	112	0.00	30.090 
19:25	68.9	68.9	68.9	27	33.5	3	6	68	0.00	30.090 
19:30	68.8	68.8	68.8	27	33.5	2	4	90	0.00	30.089 
19:35	68.6	68.6	68.6	27	33.3	2	7	90	0.00	30.089 
19:40	68.4	68.4	68.4	27	33.1	2	4	112	0.00	30.089 
19:45	68.3	68.3	68.3	27	33.0	2	5	45	0.00	30.090 
19:50	68.1	68.1	68.1	27	32.9	2	6	90	0.00	30.090 
19:55	67.8	67.8	67.8	27	32.6	2	4	112	0.00	30.090 
20:00	67.6	67.6	67.6	28	33.3	1	5	68	0.00	30.091 
20:05	67.4	67.4	67.4	28	33.2	2	5	90	0.00	30.091 
20:10	67.1	67.1	67.1	28	32.9	2	6	90	0.00	30.091 
20:15	66.9	66.9	66.9	28	32.7	2	5	90	0.00	30.090 
20:20	66.6	66.6	66.6	29	33.3	2	6	90	0.00	30.090 
20:25	66.3	66.3	66.3	30	33.9	2	3	45	0.00	30.090 
20:30	66.0	66.0	66.0	31	34.5	2	5	45	0.00	30.090 
20:35	65.5	65.5	65.5	31	34.1	2	6	68	0.00	30.090 
20:40	65.2	65.2	65.2	31	33.8	1	4	68	0.00	30.090 
20:45	64.8	64.8	64.8	31	33.5	2	4	90	0.00	30.091 
20:50	64.5	64.5	64.5	31	33.2	1	4	68	0.00	30.091 
20:55	64.2	64.2	64.2	32	33.7	1	3	68	0.00	30.091 
21:00	63.9	63.9	63.9	31	32.7	1	4	68	0.00	30.097 
21:05	63.7	63.7	63.7	32	33.3	1	3	68	0.00	30.097 
21:10	63.4	63.4	63.4	32	33.0	1	3	90	0.00	30.097 
21:15	63.1	63.1	63.1	32	32.8	1	4	90	0.00	30.092 
21:20	62.9	62.9	62.9	32	32.6	1	5	90	0.00	30.092 
21:25	62.6	62.6	62.6	32	32.3	1	4	90	0.00	30.092 
21:30	62.4	62.4	62.4	32	32.2	1	2	90	0.00	30.091 
21:35	62.1	62.1	62.1	32	31.9	1	4	90	0.00	30.091 
21:40	62.1	62.1	62.1	32	31.9	1	4	90	0.00	30.091 
21:45	61.8	61.8	61.8	33	32.4	1	4	45	0.00	30.093 
21:50	61.6	61.6	61.6	33	32.2	1	3	68	0.00	30.093 
21:55	61.3	61.3	61.3	34	32.7	1	2	68	0.00	30.093 
22:00	61.2	61.2	61.2	34	32.6	1	4	68	0.00	30.098 
22:05	61.0	61.0	61.0	35	33.2	1	5	112	0.00	30.098 
22:10	60.7	60.7	60.7	36	33.6	1	4	90	0.00	30.098 
22:15	60.5	60.5	60.5	36	33.4	2	4	68	0.00	30.097 
22:20	60.4	60.4	60.4	37	34.0	1	4	68	0.00	30.097 
22:25	60.2	60.2	60.2	37	33.8	2	5	68	0.00	30.097 
22:30	59.9	59.9	59.9	38	34.2	0	2	90	0.00	30.104 
22:35	59.8	59.8	59.8	39	34.8	0	2	90	0.00	30.104 
22:40	59.5	59.5	59.5	39	34.5	0	3	90	0.00	30.104 
22:45	59.2	59.2	59.2	39	34.3	0	2	90	0.00	30.109 
22:50	58.9	58.9	58.9	40	34.6	1	3	90	0.00	30.109 
22:55	58.6	58.6	58.6	40	34.4	1	3	90	0.00	30.109 
23:00	58.4	58.4	58.4	40	34.2	1	4	90	0.00	30.111 
23:05	58.3	58.3	58.3	41	34.7	1	3	68	0.00	30.111 
23:10	58.0	58.0	58.0	41	34.4	1	3	68	0.00	30.111 
23:15	57.8	57.8	57.8	41	34.3	1	2	68	0.00	30.110 
23:20	57.6	57.6	57.6	42	34.7	0	2	68	0.00	30.110 
23:25	57.3	57.3	57.3	43	35.0	0	1	68	0.00	30.110 
23:30	56.9	56.9	56.9	43	34.6	0	0	---	0.00	30.114 
23:35	56.5	56.5	56.5	43	34.3	0	0	---	0.00	30.114 
23:40	56.2	56.2	56.2	45	35.1	0	2	68	0.00	30.114 
23:45	56.0	56.0	56.0	44	34.4	0	2	68	0.00	30.113 
23:50	55.9	55.9	55.9	44	34.3	0	2	68	0.00	30.113 
23:55	55.7	55.7	55.7	45	34.7	0	4	68	0.00	30.113 

CoCoRaHS
IN-AL-39
A2 Web Hosting
Creative Commons License
GoDaddy
search engine by freefind advanced

loaded 2018-11-18 11:14:05 • last modified 2010-11-18 10:43:29
Privacy PolicyDisclaimer
• wx.awcolley.com is powered by PmWiki v.2002016 •
• all content (unless otherwise noted) © 2018 A W Colley